createdAt,value
2023-10-09T00:02:55.985Z,0
2023-10-09T00:08:57.170Z,0
2023-10-09T00:11:55.838Z,0
2023-10-09T00:14:56.054Z,0
2023-10-09T00:17:56.839Z,0
2023-10-09T00:20:56.347Z,0
2023-10-09T00:23:56.480Z,0
2023-10-09T00:26:57.365Z,0
2023-10-09T00:32:57.914Z,0
2023-10-09T00:35:59.781Z,0
2023-10-09T00:38:57.824Z,0
2023-10-09T00:41:58.262Z,0
2023-10-09T00:47:57.967Z,0
2023-10-09T00:53:58.822Z,0
2023-10-09T00:56:58.549Z,0
2023-10-09T01:08:54.959Z,0
2023-10-09T01:14:57.714Z,0
2023-10-09T01:17:55.430Z,0
2023-10-09T01:23:56.549Z,0
2023-10-09T01:29:57.833Z,0
2023-10-09T01:32:56.455Z,0
2023-10-09T01:38:57.197Z,0
2023-10-09T01:44:55.763Z,0
2023-10-09T01:47:56.593Z,0
2023-10-09T01:50:58.081Z,0
2023-10-09T01:53:56.049Z,0
2023-10-09T02:02:52.897Z,0
2023-10-09T02:08:53.728Z,0
2023-10-09T02:11:53.291Z,0
2023-10-09T02:17:54.276Z,0
2023-10-09T02:23:54.704Z,0
2023-10-09T02:28:26.180Z,0
2023-10-09T02:29:57.443Z,0
2023-10-09T02:32:55.789Z,0
2023-10-09T02:38:55.520Z,0
2023-10-09T02:41:55.979Z,0
2023-10-09T02:47:55.847Z,0
2023-10-09T02:51:38.060Z,0
2023-10-09T02:53:56.726Z,0
2023-10-09T02:56:59.772Z,0
2023-10-09T03:02:52.362Z,0
2023-10-09T03:08:51.655Z,0
2023-10-09T03:11:51.873Z,0
2023-10-09T03:17:52.021Z,0
2023-10-09T03:23:53.144Z,0
2023-10-09T03:27:06.893Z,0
2023-10-09T03:32:55.649Z,0
2023-10-09T03:38:53.644Z,0
2023-10-09T03:41:54.643Z,0
2023-10-09T03:47:53.492Z,0
2023-10-09T03:53:53.894Z,0
2023-10-09T03:56:53.946Z,0
2023-10-09T04:02:53.416Z,0
2023-10-09T04:08:51.864Z,0
2023-10-09T04:11:53.579Z,0
2023-10-09T04:17:53.041Z,0
2023-10-09T04:23:56.089Z,0
2023-10-09T04:26:54.373Z,0
2023-10-09T04:32:54.099Z,0
2023-10-09T04:38:57.503Z,0
2023-10-09T04:41:54.457Z,0
2023-10-09T04:48:00.758Z,0
2023-10-09T04:53:54.993Z,0
2023-10-09T04:56:56.085Z,0
2023-10-09T05:02:49.889Z,0
2023-10-09T05:08:50.352Z,0
2023-10-09T05:11:52.453Z,0
2023-10-09T05:17:50.883Z,0
2023-10-09T05:23:53.788Z,0
2023-10-09T05:26:51.716Z,0
2023-10-09T05:32:52.968Z,0
2023-10-09T05:38:51.917Z,0.2
2023-10-09T05:41:52.517Z,0.3
2023-10-09T05:47:52.391Z,0.9
2023-10-09T05:53:53.670Z,2.2
2023-10-09T05:56:51.827Z,2.9
2023-10-09T06:03:01.564Z,3.3
2023-10-09T06:08:49.059Z,4.6
2023-10-09T06:11:51.320Z,5
2023-10-09T06:17:50.364Z,6.2
2023-10-09T06:23:49.160Z,7.6
2023-10-09T06:26:49.871Z,8.8
2023-10-09T06:32:49.841Z,14.3
2023-10-09T06:38:51.955Z,19.3
2023-10-09T06:41:49.951Z,20.8
2023-10-09T06:47:51.255Z,20.5
2023-10-09T06:53:55.831Z,17.1
2023-10-09T06:56:50.933Z,19.7
2023-10-09T06:59:47.378Z,14.2
2023-10-09T07:02:47.878Z,13.6
2023-10-09T07:08:47.422Z,18.4
2023-10-09T07:11:49.025Z,14.7
2023-10-09T07:17:48.277Z,21.7
2023-10-09T07:20:52.725Z,29.5
2023-10-09T07:23:50.256Z,26.4
2023-10-09T07:26:48.204Z,35.3
2023-10-09T07:32:49.413Z,38.1
2023-10-09T07:38:48.259Z,42.7
2023-10-09T07:41:48.932Z,41.7
2023-10-09T07:47:49.032Z,29.9
2023-10-09T07:53:51.219Z,30.9
2023-10-09T07:56:51.097Z,37.9
2023-10-09T08:02:50.196Z,24.8
2023-10-09T08:09:09.662Z,24.9
2023-10-09T08:11:49.840Z,39.8
2023-10-09T08:17:50.810Z,32.9
2023-10-09T08:23:50.490Z,23.6
2023-10-09T08:26:56.233Z,30.5
2023-10-09T08:34:18.960Z,34.9
2023-10-09T08:36:08.559Z,40.1
2023-10-09T08:38:53.426Z,55
2023-10-09T08:41:51.209Z,47.5
2023-10-09T08:47:52.604Z,39.1
2023-10-09T08:53:51.768Z,53.9
2023-10-09T08:56:53.002Z,57.3
2023-10-09T09:08:51.024Z,69.2
2023-10-09T09:14:52.318Z,63.1
2023-10-09T09:17:51.957Z,59.7
2023-10-09T09:23:52.407Z,51.1
2023-10-09T09:29:52.165Z,53.3
2023-10-09T09:32:53.143Z,68.3
2023-10-09T09:38:52.656Z,72.6
2023-10-09T09:44:53.763Z,60.8
2023-10-09T09:47:53.524Z,66
2023-10-09T09:53:53.610Z,54.8
2023-10-09T10:02:54.622Z,55.4
2023-10-09T10:08:52.956Z,37.9
2023-10-09T10:11:53.750Z,49.8
2023-10-09T10:17:53.913Z,50.8
2023-10-09T10:23:55.976Z,63.3
2023-10-09T10:26:54.063Z,62.6
2023-10-09T10:32:56.494Z,49
2023-10-09T10:38:54.977Z,50.6
2023-10-09T10:41:55.762Z,39.4
2023-10-09T10:47:54.903Z,36
2023-10-09T10:53:57.771Z,37.5
2023-10-09T10:56:55.884Z,38.9
2023-10-09T11:02:56.175Z,56.4
2023-10-09T11:08:56.679Z,71.1
2023-10-09T11:11:56.082Z,69.4
2023-10-09T11:17:57.202Z,64.1
2023-10-09T11:23:56.077Z,83.1
2023-10-09T11:26:56.578Z,74.1
2023-10-09T11:32:56.478Z,107.5
2023-10-09T11:38:57.567Z,135.5
2023-10-09T11:41:56.366Z,136.8
2023-10-09T11:47:57.599Z,137.7
2023-10-09T11:53:57.326Z,155.4
2023-10-09T11:56:58.568Z,119
2023-10-09T12:02:58.205Z,93.8
2023-10-09T12:08:57.983Z,196.8
2023-10-09T12:12:16.472Z,256.8
2023-10-09T12:18:01.290Z,287.2
2023-10-09T12:24:01.724Z,331.6
2023-10-09T12:27:01.036Z,170.6
2023-10-09T12:32:59.573Z,88.2
2023-10-09T12:42:00.426Z,62.3
2023-10-09T12:44:59.536Z,66.3
2023-10-09T12:48:00.910Z,70.3
2023-10-09T12:51:00.538Z,55.9
2023-10-09T12:54:02.475Z,44
2023-10-09T12:57:01.465Z,54.4
2023-10-09T13:03:01.143Z,48.7
2023-10-09T13:06:01.223Z,47.2
2023-10-09T13:09:00.896Z,49.9
2023-10-09T13:12:00.979Z,36.7
2023-10-09T13:21:01.474Z,50.1
2023-10-09T13:24:04.043Z,61.8
2023-10-09T13:27:17.076Z,39.1
2023-10-09T13:33:02.342Z,35.8
2023-10-09T13:36:03.003Z,50.5
2023-10-09T13:39:01.728Z,54.1
2023-10-09T13:42:02.026Z,74.8
2023-10-09T13:48:02.672Z,74.9
2023-10-09T13:51:04.507Z,52.2
2023-10-09T13:54:03.054Z,53.9
2023-10-09T13:57:02.139Z,38.2
2023-10-09T14:03:02.552Z,37.5
2023-10-09T14:09:02.046Z,43.6
2023-10-09T14:15:04.949Z,44.1
2023-10-09T14:18:01.582Z,51.4
2023-10-09T14:24:03.848Z,82.7
2023-10-09T14:30:02.298Z,59.1
2023-10-09T14:33:03.592Z,50.9
2023-10-09T14:39:02.116Z,56.2
2023-10-09T14:45:02.924Z,43.3
2023-10-09T14:48:02.966Z,40.4
2023-10-09T14:54:05.234Z,45
2023-10-09T15:03:02.433Z,36.1
2023-10-09T15:09:03.367Z,58.6
2023-10-09T15:12:05.029Z,61.7
2023-10-09T15:18:03.783Z,62.6
2023-10-09T15:24:03.419Z,57.6
2023-10-09T15:27:03.808Z,50.9
2023-10-09T15:33:03.619Z,58.5
2023-10-09T15:39:04.397Z,31
2023-10-09T15:42:04.182Z,36.8
2023-10-09T15:48:05.280Z,28.7
2023-10-09T15:54:04.293Z,35.4
2023-10-09T15:57:17.703Z,23.1
2023-10-09T16:03:02.981Z,16.2
2023-10-09T16:09:05.191Z,25.3
2023-10-09T16:12:03.307Z,23
2023-10-09T16:15:03.823Z,13.7
2023-10-09T16:18:05.672Z,11.4
2023-10-09T16:24:03.897Z,6.6
2023-10-09T16:27:04.835Z,6.7
2023-10-09T16:33:04.053Z,6.5
2023-10-09T16:36:04.713Z,6
2023-10-09T16:39:04.311Z,5.7
2023-10-09T16:42:04.407Z,4.8
2023-10-09T16:48:06.944Z,3.1
2023-10-09T16:51:08.540Z,2.2
2023-10-09T16:54:05.209Z,1.5
2023-10-09T16:57:05.405Z,0.9
2023-10-09T17:03:06.543Z,0.3
2023-10-09T17:09:02.169Z,0
2023-10-09T17:12:06.244Z,0
2023-10-09T17:15:03.155Z,0
2023-10-09T17:18:02.979Z,0
2023-10-09T17:24:04.247Z,0
2023-10-09T17:30:03.061Z,0
2023-10-09T17:33:04.598Z,0
2023-10-09T17:39:02.608Z,0
2023-10-09T17:45:02.574Z,0
2023-10-09T17:48:02.856Z,0
2023-10-09T17:54:02.580Z,0
2023-10-09T18:03:02.059Z,0
2023-10-09T18:09:01.749Z,0
2023-10-09T18:12:01.766Z,0
2023-10-09T18:18:02.373Z,0
2023-10-09T18:27:02.132Z,0
2023-10-09T18:33:02.111Z,0
2023-10-09T18:39:03.366Z,0
2023-10-09T18:42:02.024Z,0
2023-10-09T18:48:03.051Z,0
2023-10-09T18:54:03.873Z,0
2023-10-09T18:57:04.326Z,0
2023-10-09T19:03:01.553Z,0
2023-10-09T19:09:01.814Z,0
2023-10-09T19:12:01.900Z,0
2023-10-09T19:18:04.761Z,0
2023-10-09T19:24:03.190Z,0
2023-10-09T19:27:04.696Z,0
2023-10-09T19:33:04.113Z,0
2023-10-09T19:39:02.558Z,0
2023-10-09T19:42:02.761Z,0
2023-10-09T19:48:03.645Z,0
2023-10-09T19:54:04.689Z,0
2023-10-09T19:57:03.508Z,0
2023-10-09T20:03:02.845Z,0
2023-10-09T20:09:02.379Z,0
2023-10-09T20:12:03.091Z,0
2023-10-09T20:15:05.089Z,0
2023-10-09T20:18:03.221Z,0
2023-10-09T20:24:05.360Z,0
2023-10-09T20:27:03.268Z,0
2023-10-09T20:33:04.983Z,0
2023-10-09T20:36:03.288Z,0
2023-10-09T20:39:03.512Z,0
2023-10-09T20:42:04.398Z,0
2023-10-09T20:48:03.912Z,0
2023-10-09T20:51:04.707Z,0
2023-10-09T20:54:03.595Z,0
2023-10-09T20:57:03.840Z,0
2023-10-09T21:00:01.946Z,0
2023-10-09T21:03:01.460Z,0
2023-10-09T21:09:02.072Z,0
2023-10-09T21:12:02.875Z,0
2023-10-09T21:18:02.144Z,0
2023-10-09T21:21:03.596Z,0
2023-10-09T21:24:01.745Z,0
2023-10-09T21:27:01.716Z,0
2023-10-09T21:33:01.698Z,0
2023-10-09T21:36:01.342Z,0
2023-10-09T21:39:02.191Z,0
2023-10-09T21:42:01.945Z,0
2023-10-09T21:48:02.889Z,0
2023-10-09T21:51:04.410Z,0
2023-10-09T21:54:03.226Z,0
2023-10-09T21:57:03.884Z,0
2023-10-09T22:03:02.392Z,0
2023-10-09T22:09:02.946Z,0
2023-10-09T22:15:01.570Z,0
2023-10-09T22:18:03.404Z,0
2023-10-09T22:24:01.667Z,0
2023-10-09T22:30:01.465Z,0
2023-10-09T22:33:01.640Z,0
2023-10-09T22:36:02.189Z,0
2023-10-09T22:39:44.657Z,0
2023-10-09T22:42:02.959Z,0
2023-10-09T22:45:02.555Z,0
2023-10-09T22:48:03.445Z,0
2023-10-09T22:54:04.298Z,0
2023-10-09T23:03:01.766Z,0
2023-10-09T23:09:01.741Z,0
2023-10-09T23:12:01.904Z,0
2023-10-09T23:18:04.979Z,0
2023-10-09T23:24:02.913Z,0
2023-10-09T23:27:04.829Z,0
2023-10-09T23:33:03.505Z,0
2023-10-09T23:39:02.937Z,0
2023-10-09T23:42:02.939Z,0
2023-10-09T23:48:03.721Z,0
2023-10-09T23:54:04.737Z,0
2023-10-09T23:57:03.455Z,0
